sensor_id;sensor_type;location;lat;lon;timestamp;pressure;altitude;pressure_sealevel;temperature;humidity
42951;BME280;28592;51.064;17.192;2022-10-15T00:01:40;99956.72;;;12.61;100.00
42951;BME280;28592;51.064;17.192;2022-10-15T00:04:29;99949.74;;;12.60;100.00
42951;BME280;28592;51.064;17.192;2022-10-15T00:07:18;99934.61;;;12.60;100.00
42951;BME280;28592;51.064;17.192;2022-10-15T00:10:04;99938.20;;;12.51;100.00
42951;BME280;28592;51.064;17.192;2022-10-15T00:12:49;99934.89;;;12.49;100.00
42951;BME280;28592;51.064;17.192;2022-10-15T00:15:42;99945.36;;;12.51;100.00
42951;BME280;28592;51.064;17.192;2022-10-15T00:18:30;99941.86;;;12.50;100.00
42951;BME280;28592;51.064;17.192;2022-10-15T00:21:18;99942.17;;;12.47;100.00
42951;BME280;28592;51.064;17.192;2022-10-15T00:24:09;99937.02;;;12.46;100.00
42951;BME280;28592;51.064;17.192;2022-10-15T00:27:03;99932.78;;;12.35;100.00
42951;BME280;28592;51.064;17.192;2022-10-15T00:29:51;99928.09;;;12.29;100.00
42951;BME280;28592;51.064;17.192;2022-10-15T00:32:42;99917.78;;;12.26;100.00
42951;BME280;28592;51.064;17.192;2022-10-15T00:35:32;99918.23;;;12.21;100.00
42951;BME280;28592;51.064;17.192;2022-10-15T00:38:20;99913.89;;;12.20;100.00
42951;BME280;28592;51.064;17.192;2022-10-15T00:41:14;99919.94;;;12.05;100.00
42951;BME280;28592;51.064;17.192;2022-10-15T00:50:19;99898.61;;;11.97;100.00
42951;BME280;28592;51.064;17.192;2022-10-15T00:53:14;99908.34;;;11.88;100.00
42951;BME280;28592;51.064;17.192;2022-10-15T00:56:00;99907.95;;;11.83;100.00
42951;BME280;28592;51.064;17.192;2022-10-15T00:58:55;99905.06;;;11.77;100.00
42951;BME280;28592;51.064;17.192;2022-10-15T01:01:46;99917.95;;;11.72;100.00
42951;BME280;28592;51.064;17.192;2022-10-15T01:07:37;99897.32;;;11.66;100.00
42951;BME280;28592;51.064;17.192;2022-10-15T01:26:06;99873.45;;;11.83;100.00
42951;BME280;28592;51.064;17.192;2022-10-15T01:44:18;99857.29;;;11.77;100.00
42951;BME280;28592;51.064;17.192;2022-10-15T01:47:20;99853.12;;;11.74;100.00
42951;BME280;28592;51.064;17.192;2022-10-15T01:50:19;99843.94;;;11.69;100.00
42951;BME280;28592;51.064;17.192;2022-10-15T01:53:06;99845.62;;;11.70;100.00
42951;BME280;28592;51.064;17.192;2022-10-15T01:56:10;99840.51;;;11.59;100.00
42951;BME280;28592;51.064;17.192;2022-10-15T01:59:06;99834.05;;;11.61;100.00
42951;BME280;28592;51.064;17.192;2022-10-15T02:01:59;99826.50;;;11.49;100.00
42951;BME280;28592;51.064;17.192;2022-10-15T02:04:49;99819.73;;;11.54;100.00
42951;BME280;28592;51.064;17.192;2022-10-15T02:10:42;99819.73;;;11.54;100.00
42951;BME280;28592;51.064;17.192;2022-10-15T02:19:31;99811.39;;;11.49;100.00
42951;BME280;28592;51.064;17.192;2022-10-15T02:25:24;99817.55;;;11.50;100.00
42951;BME280;28592;51.064;17.192;2022-10-15T02:28:23;99799.28;;;11.47;100.00
42951;BME280;28592;51.064;17.192;2022-10-15T02:31:18;99803.05;;;11.44;100.00
42951;BME280;28592;51.064;17.192;2022-10-15T02:34:10;99789.13;;;11.42;100.00
42951;BME280;28592;51.064;17.192;2022-10-15T02:36:57;99796.16;;;11.34;100.00
42951;BME280;28592;51.064;17.192;2022-10-15T02:39:44;99794.11;;;11.28;100.00
42951;BME280;28592;51.064;17.192;2022-10-15T02:42:29;99795.11;;;11.27;100.00
42951;BME280;28592;51.064;17.192;2022-10-15T02:45:15;99794.72;;;11.22;100.00
42951;BME280;28592;51.064;17.192;2022-10-15T02:48:00;99784.72;;;11.16;100.00
42951;BME280;28592;51.064;17.192;2022-10-15T02:50:45;99780.41;;;11.15;100.00
42951;BME280;28592;51.064;17.192;2022-10-15T02:53:30;99770.41;;;11.09;100.00
42951;BME280;28592;51.064;17.192;2022-10-15T02:56:15;99774.11;;;11.16;100.00
42951;BME280;28592;51.064;17.192;2022-10-15T02:59:01;99788.75;;;11.20;100.00
42951;BME280;28592;51.064;17.192;2022-10-15T03:01:46;99783.60;;;11.18;100.00
42951;BME280;28592;51.064;17.192;2022-10-15T03:04:31;99780.80;;;11.20;100.00
42951;BME280;28592;51.064;17.192;2022-10-15T03:07:17;99782.61;;;11.19;100.00
42951;BME280;28592;51.064;17.192;2022-10-15T03:10:03;99774.20;;;11.24;100.00
42951;BME280;28592;51.064;17.192;2022-10-15T03:12:48;99778.80;;;11.22;100.00
42951;BME280;28592;51.064;17.192;2022-10-15T03:15:35;99774.50;;;11.21;100.00
42951;BME280;28592;51.064;17.192;2022-10-15T03:18:21;99762.59;;;11.25;100.00
42951;BME280;28592;51.064;17.192;2022-10-15T03:21:06;99751.02;;;11.26;100.00
42951;BME280;28592;51.064;17.192;2022-10-15T03:23:51;99761.67;;;11.34;100.00
42951;BME280;28592;51.064;17.192;2022-10-15T03:26:36;99752.06;;;11.33;100.00
42951;BME280;28592;51.064;17.192;2022-10-15T03:29:21;99756.38;;;11.34;100.00
42951;BME280;28592;51.064;17.192;2022-10-15T03:32:06;99757.37;;;11.33;100.00
42951;BME280;28592;51.064;17.192;2022-10-15T03:34:51;99756.45;;;11.42;100.00
42951;BME280;28592;51.064;17.192;2022-10-15T03:37:36;99756.60;;;11.40;100.00
42951;BME280;28592;51.064;17.192;2022-10-15T03:40:21;99751.45;;;11.39;100.00
42951;BME280;28592;51.064;17.192;2022-10-15T03:43:10;99756.83;;;11.47;100.00
42951;BME280;28592;51.064;17.192;2022-10-15T03:45:55;99739.11;;;11.47;100.00
42951;BME280;28592;51.064;17.192;2022-10-15T03:48:40;99735.77;;;11.45;100.00
42951;BME280;28592;51.064;17.192;2022-10-15T03:51:26;99736.45;;;11.47;100.00
42951;BME280;28592;51.064;17.192;2022-10-15T03:54:11;99733.19;;;11.53;100.00
42951;BME280;28592;51.064;17.192;2022-10-15T03:56:57;99725.56;;;11.58;100.00
42951;BME280;28592;51.064;17.192;2022-10-15T03:59:42;99727.91;;;11.61;100.00
42951;BME280;28592;51.064;17.192;2022-10-15T04:02:29;99722.48;;;11.63;100.00
42951;BME280;28592;51.064;17.192;2022-10-15T04:05:20;99727.63;;;11.64;100.00
42951;BME280;28592;51.064;17.192;2022-10-15T04:08:05;99720.89;;;11.70;100.00
42951;BME280;28592;51.064;17.192;2022-10-15T04:10:50;99721.05;;;11.68;100.00
42951;BME280;28592;51.064;17.192;2022-10-15T04:13:35;99723.17;;;11.65;100.00
42951;BME280;28592;51.064;17.192;2022-10-15T04:16:20;99721.23;;;11.75;100.00
42951;BME280;28592;51.064;17.192;2022-10-15T04:19:05;99724.89;;;11.74;100.00
42951;BME280;28592;51.064;17.192;2022-10-15T04:21:50;99726.77;;;11.81;100.00
42951;BME280;28592;51.064;17.192;2022-10-15T04:24:35;99728.94;;;11.86;100.00
42951;BME280;28592;51.064;17.192;2022-10-15T04:27:20;99721.98;;;11.85;100.00
42951;BME280;28592;51.064;17.192;2022-10-15T04:30:06;99704.24;;;11.85;100.00
42951;BME280;28592;51.064;17.192;2022-10-15T04:32:52;99697.77;;;11.88;100.00
42951;BME280;28592;51.064;17.192;2022-10-15T04:35:37;99700.75;;;11.85;100.00
42951;BME280;28592;51.064;17.192;2022-10-15T04:38:22;99706.58;;;11.88;100.00
42951;BME280;28592;51.064;17.192;2022-10-15T04:41:10;99706.42;;;11.90;100.00
42951;BME280;28592;51.064;17.192;2022-10-15T04:43:57;99705.11;;;11.94;100.00
42951;BME280;28592;51.064;17.192;2022-10-15T04:46:42;99706.11;;;11.93;100.00
42951;BME280;28592;51.064;17.192;2022-10-15T04:49:27;99706.77;;;11.95;100.00
42951;BME280;28592;51.064;17.192;2022-10-15T04:52:15;99713.44;;;11.99;100.00
42951;BME280;28592;51.064;17.192;2022-10-15T04:55:01;99710.80;;;12.07;100.00
42951;BME280;28592;51.064;17.192;2022-10-15T04:57:48;99709.36;;;12.12;100.00
42951;BME280;28592;51.064;17.192;2022-10-15T05:00:34;99711.17;;;12.12;100.00
42951;BME280;28592;51.064;17.192;2022-10-15T05:03:19;99699.33;;;11.98;100.00
42951;BME280;28592;51.064;17.192;2022-10-15T05:06:08;99695.83;;;11.98;100.00
42951;BME280;28592;51.064;17.192;2022-10-15T05:08:54;99698.59;;;12.22;100.00
42951;BME280;28592;51.064;17.192;2022-10-15T05:11:39;99710.95;;;12.31;100.00
42951;BME280;28592;51.064;17.192;2022-10-15T05:14:25;99708.45;;;12.37;100.00
42951;BME280;28592;51.064;17.192;2022-10-15T05:17:10;99705.95;;;12.36;100.00
42951;BME280;28592;51.064;17.192;2022-10-15T05:19:56;99713.33;;;12.50;100.00
42951;BME280;28592;51.064;17.192;2022-10-15T05:22:41;99708.86;;;12.59;100.00
42951;BME280;28592;51.064;17.192;2022-10-15T05:25:26;99708.05;;;12.58;100.00
42951;BME280;28592;51.064;17.192;2022-10-15T05:28:12;99706.72;;;12.62;100.00
42951;BME280;28592;51.064;17.192;2022-10-15T05:31:03;99707.75;;;12.69;100.00
42951;BME280;28592;51.064;17.192;2022-10-15T05:33:50;99702.92;;;12.73;100.00
42951;BME280;28592;51.064;17.192;2022-10-15T05:36:36;99701.27;;;12.72;100.00
42951;BME280;28592;51.064;17.192;2022-10-15T05:39:22;99699.29;;;12.74;100.00
42951;BME280;28592;51.064;17.192;2022-10-15T05:42:08;99698.13;;;12.76;100.00
42951;BME280;28592;51.064;17.192;2022-10-15T05:44:54;99698.80;;;12.78;100.00
42951;BME280;28592;51.064;17.192;2022-10-15T05:47:39;99691.30;;;12.82;100.00
42951;BME280;28592;51.064;17.192;2022-10-15T05:50:24;99687.18;;;12.87;100.00
42951;BME280;28592;51.064;17.192;2022-10-15T05:53:10;99686.50;;;12.85;100.00
42951;BME280;28592;51.064;17.192;2022-10-15T05:55:55;99683.50;;;12.80;100.00
42951;BME280;28592;51.064;17.192;2022-10-15T05:58:42;99691.64;;;12.79;100.00
42951;BME280;28592;51.064;17.192;2022-10-15T06:01:30;99687.81;;;12.73;100.00
42951;BME280;28592;51.064;17.192;2022-10-15T06:04:16;99693.12;;;12.73;100.00
42951;BME280;28592;51.064;17.192;2022-10-15T06:07:01;99703.11;;;12.79;100.00
42951;BME280;28592;51.064;17.192;2022-10-15T06:09:47;99702.97;;;12.89;100.00
42951;BME280;28592;51.064;17.192;2022-10-15T06:12:32;99704.78;;;12.88;100.00
42951;BME280;28592;51.064;17.192;2022-10-15T06:15:18;99714.40;;;12.73;100.00
42951;BME280;28592;51.064;17.192;2022-10-15T06:18:03;99713.39;;;12.66;100.00
42951;BME280;28592;51.064;17.192;2022-10-15T06:20:51;99723.67;;;12.61;100.00
42951;BME280;28592;51.064;17.192;2022-10-15T06:23:37;99717.67;;;12.59;100.00
42951;BME280;28592;51.064;17.192;2022-10-15T06:26:22;99725.88;;;12.74;100.00
42951;BME280;28592;51.064;17.192;2022-10-15T06:29:08;99725.71;;;12.75;100.00
42951;BME280;28592;51.064;17.192;2022-10-15T06:31:53;99729.38;;;12.82;100.00
42951;BME280;28592;51.064;17.192;2022-10-15T06:34:38;99724.24;;;12.89;100.00
42951;BME280;28592;51.064;17.192;2022-10-15T06:37:28;99723.40;;;12.88;100.00
42951;BME280;28592;51.064;17.192;2022-10-15T06:40:13;99722.82;;;13.10;100.00
42951;BME280;28592;51.064;17.192;2022-10-15T06:43:07;99736.45;;;13.23;100.00
42951;BME280;28592;51.064;17.192;2022-10-15T06:46:04;99738.12;;;13.40;100.00
42951;BME280;28592;51.064;17.192;2022-10-15T06:48:50;99736.12;;;13.50;100.00
42951;BME280;28592;51.064;17.192;2022-10-15T06:51:36;99737.13;;;13.49;100.00
42951;BME280;28592;51.064;17.192;2022-10-15T06:54:21;99736.47;;;13.63;100.00
42951;BME280;28592;51.064;17.192;2022-10-15T06:57:06;99734.78;;;13.62;100.00
42951;BME280;28592;51.064;17.192;2022-10-15T06:59:51;99740.45;;;13.35;100.00
42951;BME280;28592;51.064;17.192;2022-10-15T07:02:36;99745.78;;;13.43;100.00
42951;BME280;28592;51.064;17.192;2022-10-15T07:05:22;99750.42;;;13.65;100.00
42951;BME280;28592;51.064;17.192;2022-10-15T07:08:07;99744.28;;;13.65;100.00
42951;BME280;28592;51.064;17.192;2022-10-15T07:10:51;99742.09;;;13.68;100.00
42951;BME280;28592;51.064;17.192;2022-10-15T07:13:37;99741.63;;;13.65;100.00
42951;BME280;28592;51.064;17.192;2022-10-15T07:16:23;99743.44;;;13.64;100.00
42951;BME280;28592;51.064;17.192;2022-10-15T07:19:08;99751.73;;;13.93;100.00
42951;BME280;28592;51.064;17.192;2022-10-15T07:21:54;99753.20;;;14.12;100.00
42951;BME280;28592;51.064;17.192;2022-10-15T07:24:43;99744.53;;;14.10;100.00
42951;BME280;28592;51.064;17.192;2022-10-15T07:27:31;99759.42;;;14.51;100.00
42951;BME280;28592;51.064;17.192;2022-10-15T07:30:16;99770.55;;;14.63;100.00
42951;BME280;28592;51.064;17.192;2022-10-15T07:33:01;99760.03;;;14.61;100.00
42951;BME280;28592;51.064;17.192;2022-10-15T07:35:47;99777.86;;;14.69;100.00
42951;BME280;28592;51.064;17.192;2022-10-15T07:38:36;99777.02;;;14.68;100.00
42951;BME280;28592;51.064;17.192;2022-10-15T07:41:21;99780.13;;;14.80;100.00
42951;BME280;28592;51.064;17.192;2022-10-15T07:44:06;99773.91;;;15.18;100.00
42951;BME280;28592;51.064;17.192;2022-10-15T07:46:55;99777.72;;;15.23;100.00
42951;BME280;28592;51.064;17.192;2022-10-15T07:49:40;99775.23;;;15.22;100.00
42951;BME280;28592;51.064;17.192;2022-10-15T07:52:25;99770.97;;;15.35;100.00
42951;BME280;28592;51.064;17.192;2022-10-15T07:55:10;99780.43;;;15.46;100.00
42951;BME280;28592;51.064;17.192;2022-10-15T07:57:56;99775.09;;;15.46;100.00
42951;BME280;28592;51.064;17.192;2022-10-15T08:00:42;99784.27;;;16.03;100.00
42951;BME280;28592;51.064;17.192;2022-10-15T08:03:27;99785.69;;;16.28;100.00
42951;BME280;28592;51.064;17.192;2022-10-15T08:06:14;99777.14;;;16.47;100.00
42951;BME280;28592;51.064;17.192;2022-10-15T08:08:58;99767.47;;;16.46;100.00
42951;BME280;28592;51.064;17.192;2022-10-15T08:11:43;99770.95;;;16.61;100.00
42951;BME280;28592;51.064;17.192;2022-10-15T08:14:29;99776.12;;;16.63;100.00
42951;BME280;28592;51.064;17.192;2022-10-15T08:17:14;99767.72;;;16.66;100.00
42951;BME280;28592;51.064;17.192;2022-10-15T08:19:59;99765.45;;;16.48;100.00
42951;BME280;28592;51.064;17.192;2022-10-15T08:22:45;99767.66;;;16.59;100.00
42951;BME280;28592;51.064;17.192;2022-10-15T08:25:30;99765.98;;;16.58;100.00
42951;BME280;28592;51.064;17.192;2022-10-15T08:28:16;99764.48;;;16.70;100.00
42951;BME280;28592;51.064;17.192;2022-10-15T08:31:03;99765.33;;;16.56;100.00
42951;BME280;28592;51.064;17.192;2022-10-15T08:33:48;99769.00;;;16.84;100.00
42951;BME280;28592;51.064;17.192;2022-10-15T08:36:34;99771.67;;;16.84;100.00
42951;BME280;28592;51.064;17.192;2022-10-15T08:39:19;99780.31;;;17.01;100.00
42951;BME280;28592;51.064;17.192;2022-10-15T08:42:14;99776.82;;;17.00;100.00
42951;BME280;28592;51.064;17.192;2022-10-15T08:45:05;99780.41;;;16.93;100.00
42951;BME280;28592;51.064;17.192;2022-10-15T08:48:02;99771.30;;;16.87;100.00
42951;BME280;28592;51.064;17.192;2022-10-15T08:50:56;99777.61;;;16.65;100.00
42951;BME280;28592;51.064;17.192;2022-10-15T08:53:47;99786.08;;;16.83;100.00
42951;BME280;28592;51.064;17.192;2022-10-15T08:56:39;99780.91;;;16.82;100.00
42951;BME280;28592;51.064;17.192;2022-10-15T08:59:36;99793.30;;;16.68;100.00
42951;BME280;28592;51.064;17.192;2022-10-15T09:02:29;99783.03;;;16.72;100.00
42951;BME280;28592;51.064;17.192;2022-10-15T09:08:28;99782.40;;;16.55;100.00
42951;BME280;28592;51.064;17.192;2022-10-15T09:14:14;99784.77;;;16.21;100.00
42951;BME280;28592;51.064;17.192;2022-10-15T09:17:05;99793.42;;;16.23;100.00
42951;BME280;28592;51.064;17.192;2022-10-15T09:19:54;99788.10;;;16.38;100.00
42951;BME280;28592;51.064;17.192;2022-10-15T09:22:40;99782.75;;;16.38;100.00
42951;BME280;28592;51.064;17.192;2022-10-15T09:28:39;99786.20;;;16.61;100.00
42951;BME280;28592;51.064;17.192;2022-10-15T09:31:40;99794.72;;;16.85;100.00
42951;BME280;28592;51.064;17.192;2022-10-15T09:37:29;99798.43;;;16.84;100.00
42951;BME280;28592;51.064;17.192;2022-10-15T09:43:21;99800.02;;;16.79;100.00
42951;BME280;28592;51.064;17.192;2022-10-15T09:46:14;99800.97;;;17.07;100.00
42951;BME280;28592;51.064;17.192;2022-10-15T09:49:06;99793.53;;;17.23;100.00
42951;BME280;28592;51.064;17.192;2022-10-15T09:52:02;99793.53;;;17.23;100.00
42951;BME280;28592;51.064;17.192;2022-10-15T09:55:11;99785.69;;;17.22;100.00
42951;BME280;28592;51.064;17.192;2022-10-15T09:57:52;99788.80;;;17.04;100.00
42951;BME280;28592;51.064;17.192;2022-10-15T10:03:36;99809.87;;;17.28;100.00
42951;BME280;28592;51.064;17.192;2022-10-15T10:06:22;99809.69;;;17.44;100.00
42951;BME280;28592;51.064;17.192;2022-10-15T10:09:15;99812.36;;;17.44;100.00
42951;BME280;28592;51.064;17.192;2022-10-15T10:12:05;99811.52;;;17.65;100.00
42951;BME280;28592;51.064;17.192;2022-10-15T10:14:57;99802.84;;;17.63;100.00
42951;BME280;28592;51.064;17.192;2022-10-15T10:17:52;99821.27;;;17.94;100.00
42951;BME280;28592;51.064;17.192;2022-10-15T10:20:51;99811.58;;;17.93;100.00
42951;BME280;28592;51.064;17.192;2022-10-15T10:23:37;99820.31;;;18.29;100.00
42951;BME280;28592;51.064;17.192;2022-10-15T10:26:23;99825.87;;;18.27;100.00
42951;BME280;28592;51.064;17.192;2022-10-15T10:29:17;99810.03;;;17.41;100.00
42951;BME280;28592;51.064;17.192;2022-10-15T10:32:11;99811.03;;;17.40;100.00
42951;BME280;28592;51.064;17.192;2022-10-15T10:35:04;99808.73;;;17.52;100.00
42951;BME280;28592;51.064;17.192;2022-10-15T10:37:53;99807.24;;;17.49;100.00
42951;BME280;28592;51.064;17.192;2022-10-15T10:40:39;99812.41;;;17.72;100.00
42951;BME280;28592;51.064;17.192;2022-10-15T10:43:27;99811.06;;;17.62;100.00
42951;BME280;28592;51.064;17.192;2022-10-15T10:46:17;99809.23;;;17.62;100.00
42951;BME280;28592;51.064;17.192;2022-10-15T10:49:03;99812.34;;;17.87;100.00
42951;BME280;28592;51.064;17.192;2022-10-15T10:51:49;99810.99;;;17.97;100.00
42951;BME280;28592;51.064;17.192;2022-10-15T10:54:34;99804.59;;;17.98;100.00
42951;BME280;28592;51.064;17.192;2022-10-15T10:57:27;99822.77;;;18.24;100.00
42951;BME280;28592;51.064;17.192;2022-10-15T11:09:14;99812.51;;;18.06;100.00
42951;BME280;28592;51.064;17.192;2022-10-15T11:21:10;99790.50;;;18.38;100.00
42951;BME280;28592;51.064;17.192;2022-10-15T11:27:03;99788.08;;;18.50;100.00
42951;BME280;28592;51.064;17.192;2022-10-15T11:30:02;99786.03;;;18.52;100.00
42951;BME280;28592;51.064;17.192;2022-10-15T11:54:06;99771.19;;;18.56;100.00
42951;BME280;28592;51.064;17.192;2022-10-15T11:56:55;99768.70;;;18.54;100.00
42951;BME280;28592;51.064;17.192;2022-10-15T11:59:55;99765.01;;;18.55;100.00
42951;BME280;28592;51.064;17.192;2022-10-15T12:02:42;99759.05;;;18.60;100.00
42951;BME280;28592;51.064;17.192;2022-10-15T12:08:30;99767.14;;;18.66;100.00
42951;BME280;28592;51.064;17.192;2022-10-15T12:11:26;99763.17;;;18.62;100.00
42951;BME280;28592;51.064;17.192;2022-10-15T12:14:23;99762.58;;;18.67;100.00
42951;BME280;28592;51.064;17.192;2022-10-15T12:17:23;99772.02;;;18.56;100.00
42951;BME280;28592;51.064;17.192;2022-10-15T12:20:14;99776.73;;;18.48;100.00
42951;BME280;28592;51.064;17.192;2022-10-15T12:23:01;99774.86;;;18.48;100.00
42951;BME280;28592;51.064;17.192;2022-10-15T12:25:47;99767.41;;;18.44;100.00
42951;BME280;28592;51.064;17.192;2022-10-15T12:28:32;99776.80;;;18.61;100.00
42951;BME280;28592;51.064;17.192;2022-10-15T12:31:28;99773.30;;;18.60;100.00
42951;BME280;28592;51.064;17.192;2022-10-15T12:37:17;99776.95;;;18.53;100.00
42951;BME280;28592;51.064;17.192;2022-10-15T12:43:02;99766.73;;;18.69;100.00
42951;BME280;28592;51.064;17.192;2022-10-15T12:45:53;99760.73;;;18.67;100.00
42951;BME280;28592;51.064;17.192;2022-10-15T12:48:43;99765.84;;;19.03;100.00
42951;BME280;28592;51.064;17.192;2022-10-15T12:51:29;99757.76;;;18.96;98.69
42951;BME280;28592;51.064;17.192;2022-10-15T13:03:20;99762.66;;;18.80;100.00
42951;BME280;28592;51.064;17.192;2022-10-15T13:11:59;99763.86;;;18.77;100.00
42951;BME280;28592;51.064;17.192;2022-10-15T13:14:51;99769.27;;;18.84;99.85
42951;BME280;28592;51.064;17.192;2022-10-15T13:17:38;99768.20;;;18.38;100.00
42951;BME280;28592;51.064;17.192;2022-10-15T13:20:35;99770.53;;;18.47;100.00
42951;BME280;28592;51.064;17.192;2022-10-15T13:23:26;99775.25;;;18.45;100.00
42951;BME280;28592;51.064;17.192;2022-10-15T13:26:21;99766.86;;;18.55;100.00
42951;BME280;28592;51.064;17.192;2022-10-15T13:29:15;99766.70;;;18.63;100.00
42951;BME280;28592;51.064;17.192;2022-10-15T13:32:01;99763.73;;;18.51;100.00
42951;BME280;28592;51.064;17.192;2022-10-15T13:34:50;99768.74;;;18.61;100.00
42951;BME280;28592;51.064;17.192;2022-10-15T13:37:40;99769.98;;;18.31;100.00
42951;BME280;28592;51.064;17.192;2022-10-15T13:40:31;99763.78;;;18.30;100.00
42951;BME280;28592;51.064;17.192;2022-10-15T13:43:22;99775.50;;;18.23;100.00
42951;BME280;28592;51.064;17.192;2022-10-15T13:46:14;99767.06;;;17.98;100.00
42951;BME280;28592;51.064;17.192;2022-10-15T13:49:10;99771.63;;;17.98;100.00
42951;BME280;28592;51.064;17.192;2022-10-15T13:51:57;99760.11;;;18.04;100.00
42951;BME280;28592;51.064;17.192;2022-10-15T13:54:49;99766.14;;;17.85;100.00
42951;BME280;28592;51.064;17.192;2022-10-15T13:57:44;99762.00;;;17.82;100.00
42951;BME280;28592;51.064;17.192;2022-10-15T14:00:33;99782.05;;;17.65;100.00
42951;BME280;28592;51.064;17.192;2022-10-15T14:06:22;99786.84;;;17.48;100.00
42951;BME280;28592;51.064;17.192;2022-10-15T14:09:19;99794.49;;;17.52;100.00
42951;BME280;28592;51.064;17.192;2022-10-15T14:12:11;99791.55;;;17.46;100.00
42951;BME280;28592;51.064;17.192;2022-10-15T14:17:52;99793.34;;;17.25;100.00
42951;BME280;28592;51.064;17.192;2022-10-15T14:20:43;99801.70;;;17.15;100.00
42951;BME280;28592;51.064;17.192;2022-10-15T14:23:32;99801.38;;;16.89;100.00
42951;BME280;28592;51.064;17.192;2022-10-15T14:26:22;99798.52;;;16.76;100.00
42951;BME280;28592;51.064;17.192;2022-10-15T14:29:19;99805.52;;;16.92;100.00
42951;BME280;28592;51.064;17.192;2022-10-15T14:35:03;99790.21;;;16.86;100.00
42951;BME280;28592;51.064;17.192;2022-10-15T14:43:42;99799.27;;;16.70;100.00
42951;BME280;28592;51.064;17.192;2022-10-15T14:46:37;99797.06;;;16.74;100.00
42951;BME280;28592;51.064;17.192;2022-10-15T14:49:25;99793.92;;;16.85;100.00
42951;BME280;28592;51.064;17.192;2022-10-15T14:52:15;99795.78;;;16.70;100.00
42951;BME280;28592;51.064;17.192;2022-10-15T14:55:12;99789.68;;;16.61;100.00
42951;BME280;28592;51.064;17.192;2022-10-15T14:58:00;99792.55;;;16.60;100.00
42951;BME280;28592;51.064;17.192;2022-10-15T15:00:48;99799.27;;;16.70;100.00
42951;BME280;28592;51.064;17.192;2022-10-15T15:03:40;99792.27;;;16.69;100.00
42951;BME280;28592;51.064;17.192;2022-10-15T15:06:25;99801.28;;;16.39;100.00
42951;BME280;28592;51.064;17.192;2022-10-15T15:09:11;99802.33;;;16.53;100.00
42951;BME280;28592;51.064;17.192;2022-10-15T15:11:56;99802.15;;;16.54;100.00
42951;BME280;28592;51.064;17.192;2022-10-15T15:14:41;99813.76;;;16.61;100.00
42951;BME280;28592;51.064;17.192;2022-10-15T15:17:28;99812.95;;;16.61;100.00
42951;BME280;28592;51.064;17.192;2022-10-15T15:20:15;99820.05;;;16.68;100.00
42951;BME280;28592;51.064;17.192;2022-10-15T15:23:04;99821.04;;;16.67;100.00
42951;BME280;28592;51.064;17.192;2022-10-15T15:25:50;99835.16;;;16.61;100.00
42951;BME280;28592;51.064;17.192;2022-10-15T15:28:36;99829.31;;;16.43;100.00
42951;BME280;28592;51.064;17.192;2022-10-15T15:31:21;99825.85;;;16.57;100.00
42951;BME280;28592;51.064;17.192;2022-10-15T15:34:08;99813.76;;;16.61;100.00
42951;BME280;28592;51.064;17.192;2022-10-15T15:36:55;99818.69;;;16.35;100.00
42951;BME280;28592;51.064;17.192;2022-10-15T15:39:40;99834.55;;;16.22;100.00
42951;BME280;28592;51.064;17.192;2022-10-15T15:42:29;99823.19;;;16.20;100.00
42951;BME280;28592;51.064;17.192;2022-10-15T15:45:22;99840.98;;;16.13;100.00
42951;BME280;28592;51.064;17.192;2022-10-15T15:48:08;99841.97;;;16.12;100.00
42951;BME280;28592;51.064;17.192;2022-10-15T15:51:02;99836.56;;;16.20;100.00
42951;BME280;28592;51.064;17.192;2022-10-15T15:53:48;99845.23;;;16.22;100.00
42951;BME280;28592;51.064;17.192;2022-10-15T15:56:34;99840.91;;;16.21;100.00
42951;BME280;28592;51.064;17.192;2022-10-15T15:59:20;99833.81;;;16.28;100.00
42951;BME280;28592;51.064;17.192;2022-10-15T16:02:06;99853.55;;;16.27;100.00
42951;BME280;28592;51.064;17.192;2022-10-15T16:04:54;99849.99;;;16.12;100.00
42951;BME280;28592;51.064;17.192;2022-10-15T16:07:43;99849.99;;;16.12;100.00
42951;BME280;28592;51.064;17.192;2022-10-15T16:10:28;99848.75;;;16.23;100.00
42951;BME280;28592;51.064;17.192;2022-10-15T16:13:14;99858.31;;;16.17;100.00
42951;BME280;28592;51.064;17.192;2022-10-15T16:16:00;99856.66;;;16.16;100.00
42951;BME280;28592;51.064;17.192;2022-10-15T16:18:47;99861.50;;;15.98;100.00
42951;BME280;28592;51.064;17.192;2022-10-15T16:21:35;99857.22;;;16.26;100.00
42951;BME280;28592;51.064;17.192;2022-10-15T16:24:24;99862.56;;;16.26;100.00
42951;BME280;28592;51.064;17.192;2022-10-15T16:27:09;99874.70;;;16.14;100.00
42951;BME280;28592;51.064;17.192;2022-10-15T16:29:54;99863.17;;;16.14;100.00
42951;BME280;28592;51.064;17.192;2022-10-15T16:32:39;99866.27;;;16.25;100.00
42951;BME280;28592;51.064;17.192;2022-10-15T16:35:24;99879.57;;;16.11;100.00
42951;BME280;28592;51.064;17.192;2022-10-15T16:38:09;99879.57;;;16.11;100.00
42951;BME280;28592;51.064;17.192;2022-10-15T16:40:56;99893.20;;;16.01;100.00
42951;BME280;28592;51.064;17.192;2022-10-15T16:43:41;99890.94;;;15.90;100.00
42951;BME280;28592;51.064;17.192;2022-10-15T16:46:27;99896.81;;;16.08;100.00
42951;BME280;28592;51.064;17.192;2022-10-15T16:49:12;99899.78;;;16.13;100.00
42951;BME280;28592;51.064;17.192;2022-10-15T16:51:57;99898.01;;;16.06;100.00
42951;BME280;28592;51.064;17.192;2022-10-15T16:54:45;99890.17;;;16.04;100.00
42951;BME280;28592;51.064;17.192;2022-10-15T16:57:31;99897.98;;;16.28;100.00
42951;BME280;28592;51.064;17.192;2022-10-15T17:00:19;99885.64;;;16.27;100.00